createdAt,value
2023-06-07T00:00:09.492Z,75.02
2023-06-07T00:02:58.470Z,74.87
2023-06-07T00:05:27.231Z,74.90
2023-06-07T00:07:55.513Z,74.96
2023-06-07T00:10:23.278Z,75.02
2023-06-07T00:12:51.233Z,75.02
2023-06-07T00:15:19.010Z,75.14
2023-06-07T00:17:47.402Z,75.12
2023-06-07T00:20:16.015Z,74.95
2023-06-07T00:22:43.945Z,75.14
2023-06-07T00:25:11.756Z,75.22
2023-06-07T00:27:39.674Z,75.38
2023-06-07T00:30:08.054Z,75.46
2023-06-07T00:32:36.050Z,75.50
2023-06-07T00:35:03.997Z,75.33
2023-06-07T00:37:31.753Z,75.52
2023-06-07T00:39:59.547Z,75.60
2023-06-07T00:42:27.490Z,75.54
2023-06-07T00:44:55.256Z,75.64
2023-06-07T00:47:23.054Z,75.57
2023-06-07T00:49:51.193Z,75.60
2023-06-07T00:52:19.066Z,75.70
2023-06-07T00:54:46.928Z,75.78
2023-06-07T00:57:14.689Z,75.81
2023-06-07T00:59:42.456Z,75.79
2023-06-07T01:02:10.253Z,75.81
2023-06-07T01:04:42.066Z,75.84
2023-06-07T01:07:09.986Z,75.65
2023-06-07T01:09:37.917Z,75.72
2023-06-07T01:12:07.218Z,75.95
2023-06-07T01:14:34.981Z,76.04
2023-06-07T01:17:03.786Z,75.90
2023-06-07T01:19:31.538Z,75.79
2023-06-07T01:21:59.303Z,75.76
2023-06-07T01:24:31.327Z,75.78
2023-06-07T01:27:00.285Z,75.81
2023-06-07T01:29:28.232Z,75.81
2023-06-07T01:31:56.051Z,75.81
2023-06-07T01:34:23.960Z,76.05
2023-06-07T01:36:52.084Z,75.89
2023-06-07T01:39:20.107Z,75.94
2023-06-07T01:41:47.979Z,76.09
2023-06-07T01:44:15.939Z,76.14
2023-06-07T01:46:43.710Z,76.17
2023-06-07T01:49:11.470Z,76.27
2023-06-07T01:51:39.391Z,76.08
2023-06-07T01:54:07.206Z,76.19
2023-06-07T01:56:34.969Z,76.15
2023-06-07T01:59:03.350Z,76.33
2023-06-07T02:01:31.157Z,76.22
2023-06-07T02:03:59.135Z,76.28
2023-06-07T02:06:27.043Z,76.07
2023-06-07T02:08:54.807Z,76.08
2023-06-07T02:11:23.708Z,76.13
2023-06-07T02:13:51.462Z,76.17
2023-06-07T02:16:20.804Z,76.29
2023-06-07T02:18:48.732Z,76.21
2023-06-07T02:21:16.498Z,76.05
2023-06-07T02:23:44.408Z,76.11
2023-06-07T02:26:13.179Z,76.20
2023-06-07T02:28:41.019Z,76.28
2023-06-07T02:31:08.906Z,76.29
2023-06-07T02:33:36.755Z,76.36
2023-06-07T02:36:04.515Z,76.27
2023-06-07T02:38:32.286Z,76.32
2023-06-07T02:41:00.972Z,76.41
2023-06-07T02:43:28.934Z,76.37
2023-06-07T02:45:56.857Z,76.37
2023-06-07T02:48:24.667Z,76.36
2023-06-07T02:50:52.429Z,76.41
2023-06-07T02:53:20.369Z,76.61
2023-06-07T02:55:48.166Z,76.63
2023-06-07T02:58:16.960Z,76.89
2023-06-07T03:00:50.095Z,76.94
2023-06-07T03:03:18.339Z,77.08
2023-06-07T03:05:50.925Z,76.96
2023-06-07T03:08:18.765Z,77.05
2023-06-07T03:10:46.547Z,77.08
2023-06-07T03:13:14.495Z,77.00
2023-06-07T03:15:42.259Z,76.82
2023-06-07T03:18:10.134Z,77.02
2023-06-07T03:20:38.608Z,77.01
2023-06-07T03:23:06.578Z,77.08
2023-06-07T03:25:34.492Z,77.08
2023-06-07T03:28:02.310Z,77.17
2023-06-07T03:30:30.128Z,77.23
2023-06-07T03:32:57.974Z,77.25
2023-06-07T03:35:26.233Z,77.07
2023-06-07T03:37:54.091Z,77.07
2023-06-07T03:40:21.850Z,77.20
2023-06-07T03:42:49.618Z,77.25
2023-06-07T03:45:17.391Z,77.18
2023-06-07T03:47:45.299Z,77.18
2023-06-07T03:50:13.131Z,77.12
2023-06-07T03:52:40.983Z,77.17
2023-06-07T03:55:08.742Z,77.46
2023-06-07T03:57:36.509Z,77.43
2023-06-07T04:00:12.673Z,77.37
2023-06-07T04:02:40.557Z,77.39
2023-06-07T04:05:09.915Z,77.17
2023-06-07T04:07:39.037Z,77.30
2023-06-07T04:10:07.263Z,77.24
2023-06-07T04:12:35.281Z,77.48
2023-06-07T04:15:03.076Z,77.47
2023-06-07T04:17:31.125Z,77.43
2023-06-07T04:19:58.881Z,77.26
2023-06-07T04:22:26.854Z,77.32
2023-06-07T04:24:54.926Z,77.47
2023-06-07T04:27:24.848Z,77.58
2023-06-07T04:29:55.173Z,77.74
2023-06-07T04:32:23.396Z,77.65
2023-06-07T04:34:53.048Z,77.72
2023-06-07T04:37:20.914Z,77.76
2023-06-07T04:39:50.588Z,77.86
2023-06-07T04:42:18.382Z,77.92
2023-06-07T04:44:46.555Z,77.90
2023-06-07T04:47:15.177Z,77.91
2023-06-07T04:49:43.109Z,77.78
2023-06-07T04:52:14.013Z,77.78
2023-06-07T04:54:41.975Z,77.86
2023-06-07T04:57:10.545Z,77.79
2023-06-07T04:59:44.267Z,77.87
2023-06-07T05:02:12.139Z,77.70
2023-06-07T05:04:39.931Z,77.74
2023-06-07T05:07:07.805Z,77.77
2023-06-07T05:09:36.232Z,77.93
2023-06-07T05:12:03.987Z,77.93
2023-06-07T05:14:31.814Z,77.96
2023-06-07T05:17:01.348Z,77.96
2023-06-07T05:19:31.126Z,77.75
2023-06-07T05:21:58.892Z,77.82
2023-06-07T05:24:26.663Z,77.93
2023-06-07T05:26:54.418Z,77.80
2023-06-07T05:29:23.004Z,77.85
2023-06-07T05:31:51.084Z,77.86
2023-06-07T05:34:19.050Z,77.82
2023-06-07T05:36:46.813Z,77.88
2023-06-07T05:39:14.585Z,78.03
2023-06-07T05:41:42.340Z,77.97
2023-06-07T05:44:10.210Z,78.02
2023-06-07T05:46:38.612Z,77.87
2023-06-07T05:49:06.969Z,77.76
2023-06-07T05:51:34.833Z,77.79
2023-06-07T05:54:02.600Z,77.91
2023-06-07T05:56:30.362Z,77.87
2023-06-07T05:58:58.073Z,77.76
2023-06-07T06:01:25.890Z,77.81
2023-06-07T06:03:53.756Z,77.87
2023-06-07T06:06:22.235Z,77.79
2023-06-07T06:08:50.006Z,78.10
2023-06-07T06:11:17.775Z,78.32
2023-06-07T06:13:46.449Z,78.25
2023-06-07T06:16:14.259Z,78.16
2023-06-07T06:18:41.975Z,78.09
2023-06-07T06:21:09.972Z,77.95
2023-06-07T06:23:37.889Z,77.99
2023-06-07T06:26:06.039Z,78.09
2023-06-07T06:28:33.955Z,78.09
2023-06-07T06:31:02.860Z,78.07
2023-06-07T06:33:31.030Z,77.81
2023-06-07T06:35:59.005Z,77.86
2023-06-07T06:38:27.165Z,77.87
2023-06-07T06:40:55.237Z,77.69
2023-06-07T06:43:23.112Z,77.55
2023-06-07T06:45:50.973Z,77.54
2023-06-07T06:48:18.852Z,77.46
2023-06-07T06:50:48.444Z,77.45
2023-06-07T06:53:16.215Z,77.42
2023-06-07T06:55:43.983Z,77.40
2023-06-07T06:58:12.108Z,77.35
2023-06-07T07:00:39.909Z,77.39
2023-06-07T07:03:07.763Z,77.38
2023-06-07T07:05:36.104Z,77.42
2023-06-07T07:08:04.431Z,77.47
2023-06-07T07:10:32.423Z,77.44
2023-06-07T07:13:00.230Z,77.57
2023-06-07T07:15:29.056Z,77.46
2023-06-07T07:17:57.021Z,77.66
2023-06-07T07:20:24.967Z,77.52
2023-06-07T07:22:52.867Z,77.68
2023-06-07T07:25:20.735Z,77.81
2023-06-07T07:27:48.503Z,77.85
2023-06-07T07:30:17.100Z,77.99
2023-06-07T07:32:45.022Z,77.85
2023-06-07T07:35:12.985Z,77.65
2023-06-07T07:37:41.107Z,77.46
2023-06-07T07:40:13.714Z,77.31
2023-06-07T07:42:41.584Z,77.30
2023-06-07T07:45:09.500Z,77.24
2023-06-07T07:47:37.823Z,77.18
2023-06-07T07:50:06.924Z,77.09
2023-06-07T07:52:35.048Z,76.90
2023-06-07T07:55:04.514Z,76.79
2023-06-07T07:57:32.521Z,76.61
2023-06-07T08:00:00.504Z,76.48
2023-06-07T08:02:28.528Z,76.58
2023-06-07T08:04:56.483Z,76.66
2023-06-07T08:07:24.301Z,76.54
2023-06-07T08:09:52.120Z,76.30
2023-06-07T08:12:19.928Z,76.36
2023-06-07T08:14:47.696Z,76.42
2023-06-07T08:17:15.455Z,76.33
2023-06-07T08:19:43.244Z,76.42
2023-06-07T08:22:11.093Z,76.14
2023-06-07T08:24:38.852Z,75.93
2023-06-07T08:27:06.976Z,75.99
2023-06-07T08:29:34.790Z,76.10
2023-06-07T08:32:02.552Z,76.33
2023-06-07T08:34:31.859Z,76.10
2023-06-07T08:37:02.523Z,76.11
2023-06-07T08:39:30.451Z,76.07
2023-06-07T08:41:58.316Z,76.03
2023-06-07T08:44:26.082Z,75.88
2023-06-07T08:46:53.971Z,75.78
2023-06-07T08:49:21.826Z,75.94
2023-06-07T08:51:52.846Z,76.02
2023-06-07T08:54:25.845Z,76.02
2023-06-07T08:56:53.665Z,76.27
2023-06-07T08:59:21.782Z,76.15
2023-06-07T09:01:50.002Z,76.24
2023-06-07T09:04:17.958Z,76.14
2023-06-07T09:06:46.303Z,76.04
2023-06-07T09:09:14.380Z,76.08
2023-06-07T09:11:42.446Z,75.79
2023-06-07T09:14:10.208Z,75.42
2023-06-07T09:16:38.145Z,75.06
2023-06-07T09:19:07.477Z,75.15
2023-06-07T09:21:36.787Z,74.95
2023-06-07T09:24:04.829Z,74.95
2023-06-07T09:26:32.620Z,74.87
2023-06-07T09:29:00.996Z,74.86
2023-06-07T09:31:30.374Z,74.59
2023-06-07T09:33:58.469Z,74.38
2023-06-07T09:36:26.567Z,74.50
2023-06-07T09:38:54.432Z,74.54
2023-06-07T09:41:22.483Z,74.72
2023-06-07T09:43:55.957Z,74.52
2023-06-07T09:46:23.820Z,74.32
2023-06-07T09:48:51.966Z,74.45
2023-06-07T09:51:20.508Z,74.42
2023-06-07T09:53:48.218Z,74.41
2023-06-07T09:56:16.167Z,74.30
2023-06-07T09:58:47.444Z,74.21
2023-06-07T10:01:15.786Z,74.13
2023-06-07T10:03:44.758Z,74.08
2023-06-07T10:06:12.558Z,74.01
2023-06-07T10:08:40.389Z,73.94
2023-06-07T10:11:08.186Z,73.65
2023-06-07T10:13:36.144Z,73.56
2023-06-07T10:16:08.873Z,73.68
2023-06-07T10:18:36.905Z,73.62
2023-06-07T10:21:05.043Z,73.47
2023-06-07T10:23:32.940Z,73.49
2023-06-07T10:26:00.874Z,73.50
2023-06-07T10:28:29.516Z,73.29
2023-06-07T10:30:58.871Z,72.97
2023-06-07T10:33:26.725Z,72.68
2023-06-07T10:35:54.520Z,72.88
2023-06-07T10:38:22.266Z,72.85
2023-06-07T10:40:50.133Z,72.83
2023-06-07T10:43:17.888Z,73.05
2023-06-07T10:45:45.690Z,72.69
2023-06-07T10:48:13.699Z,72.82
2023-06-07T10:50:41.595Z,72.64
2023-06-07T10:53:13.197Z,72.65
2023-06-07T10:55:42.696Z,73.07
2023-06-07T10:58:10.554Z,73.10
2023-06-07T11:00:40.028Z,72.89
2023-06-07T11:03:13.559Z,72.94
2023-06-07T11:05:42.008Z,72.47
2023-06-07T11:08:10.125Z,72.40
2023-06-07T11:10:38.039Z,72.43
2023-06-07T11:13:05.972Z,72.59
2023-06-07T11:15:37.877Z,72.50
2023-06-07T11:18:16.073Z,72.85
2023-06-07T11:20:47.274Z,72.78
2023-06-07T11:23:15.117Z,72.69
2023-06-07T11:25:42.862Z,72.60
2023-06-07T11:28:11.092Z,72.24
2023-06-07T11:30:39.009Z,71.88
2023-06-07T11:33:07.314Z,71.69
2023-06-07T11:35:35.255Z,71.20
2023-06-07T11:38:03.112Z,71.07
2023-06-07T11:40:31.180Z,71.29
2023-06-07T11:42:58.949Z,71.39
2023-06-07T11:45:27.022Z,71.38
2023-06-07T11:47:56.486Z,71.41
2023-06-07T11:50:25.929Z,71.27
2023-06-07T11:52:54.355Z,71.38
2023-06-07T11:55:22.175Z,71.33
2023-06-07T11:57:53.150Z,71.20
2023-06-07T12:00:22.205Z,70.92
2023-06-07T12:02:50.171Z,71.13
2023-06-07T12:05:19.070Z,70.95
2023-06-07T12:07:46.928Z,71.14
2023-06-07T12:10:14.696Z,71.09
2023-06-07T12:12:43.799Z,71.16
2023-06-07T12:15:12.099Z,71.25
2023-06-07T12:17:41.084Z,71.52
2023-06-07T12:20:12.874Z,71.42
2023-06-07T12:22:40.785Z,71.37
2023-06-07T12:25:09.597Z,71.43
2023-06-07T12:27:40.512Z,71.69
2023-06-07T12:30:08.448Z,71.99
2023-06-07T12:32:36.521Z,72.30
2023-06-07T12:35:07.086Z,72.51
2023-06-07T12:37:36.602Z,72.67
2023-06-07T12:40:05.893Z,72.70
2023-06-07T12:42:33.963Z,72.88
2023-06-07T12:45:02.625Z,73.13
2023-06-07T12:47:30.866Z,73.52
2023-06-07T12:49:59.680Z,74.17
2023-06-07T12:52:27.586Z,74.70
2023-06-07T12:54:55.451Z,75.06
2023-06-07T12:57:23.317Z,75.36
2023-06-07T12:59:51.285Z,75.88
2023-06-07T13:02:22.051Z,76.38
2023-06-07T13:04:50.315Z,76.38
2023-06-07T13:07:20.619Z,76.33
2023-06-07T13:09:48.483Z,76.60
2023-06-07T13:12:19.332Z,76.95
2023-06-07T13:14:47.828Z,77.40
2023-06-07T13:17:17.313Z,77.52
2023-06-07T13:19:45.894Z,77.70
2023-06-07T13:22:13.967Z,77.49
2023-06-07T13:24:41.753Z,77.84
2023-06-07T13:27:10.106Z,78.09
2023-06-07T13:29:37.982Z,78.09
2023-06-07T13:32:05.790Z,78.22
2023-06-07T13:34:33.706Z,78.17
2023-06-07T13:37:01.475Z,78.26
2023-06-07T13:39:29.233Z,78.17
2023-06-07T13:41:57.013Z,78.55
2023-06-07T13:44:24.870Z,78.94
2023-06-07T13:46:53.081Z,78.74
2023-06-07T13:49:21.122Z,78.58
2023-06-07T13:51:49.286Z,78.65
2023-06-07T13:54:17.049Z,79.20
2023-06-07T13:56:45.213Z,79.35
2023-06-07T13:59:13.149Z,79.19
2023-06-07T14:01:41.143Z,79.00
2023-06-07T14:04:09.397Z,79.14
2023-06-07T14:06:40.328Z,79.23
2023-06-07T14:09:08.585Z,79.53
2023-06-07T14:11:39.015Z,79.55
2023-06-07T14:14:06.843Z,79.52
2023-06-07T14:16:35.253Z,79.61
2023-06-07T14:19:03.610Z,79.60
2023-06-07T14:21:33.006Z,79.90
2023-06-07T14:24:00.994Z,80.22
2023-06-07T14:26:29.048Z,80.15
2023-06-07T14:28:57.003Z,80.09
2023-06-07T14:31:25.005Z,80.29
2023-06-07T14:33:53.451Z,80.21
2023-06-07T14:36:21.643Z,80.35
2023-06-07T14:38:49.403Z,80.05
2023-06-07T14:41:17.181Z,80.18
2023-06-07T14:43:45.033Z,80.33
2023-06-07T14:46:12.959Z,80.57
2023-06-07T14:48:41.074Z,80.83
2023-06-07T14:51:08.942Z,81.07
2023-06-07T14:53:36.718Z,80.99
2023-06-07T14:56:04.469Z,81.01
2023-06-07T14:58:32.240Z,81.00
2023-06-07T15:01:00.040Z,80.74
2023-06-07T15:03:28.018Z,80.50
2023-06-07T15:05:55.838Z,80.44
2023-06-07T15:08:23.597Z,80.04
2023-06-07T15:10:51.977Z,80.06
2023-06-07T15:13:20.151Z,79.97
2023-06-07T15:15:47.949Z,80.18
2023-06-07T15:18:17.833Z,80.32
2023-06-07T15:20:45.812Z,80.30
2023-06-07T15:23:13.667Z,79.93
2023-06-07T15:25:41.437Z,79.74
2023-06-07T15:28:10.118Z,80.04
2023-06-07T15:30:37.986Z,79.79
2023-06-07T15:33:05.828Z,79.99
2023-06-07T15:35:33.716Z,80.10
2023-06-07T15:38:01.604Z,79.98
2023-06-07T15:40:29.453Z,80.12
2023-06-07T15:42:57.330Z,79.92
2023-06-07T15:45:25.185Z,79.67
2023-06-07T15:47:53.004Z,79.72
2023-06-07T15:50:21.031Z,79.71
2023-06-07T15:52:48.784Z,79.46
2023-06-07T15:55:16.549Z,79.58
2023-06-07T15:57:44.311Z,79.88
2023-06-07T16:00:23.318Z,79.97
2023-06-07T16:03:00.449Z,79.96
2023-06-07T16:05:28.595Z,79.81
2023-06-07T16:07:57.206Z,80.00
2023-06-07T16:10:29.245Z,80.17
2023-06-07T16:12:57.218Z,79.90
2023-06-07T16:15:25.027Z,80.07
2023-06-07T16:17:52.891Z,79.83
2023-06-07T16:20:21.328Z,79.64
2023-06-07T16:22:49.119Z,79.17
2023-06-07T16:25:16.853Z,79.02
2023-06-07T16:27:44.673Z,79.12
2023-06-07T16:30:18.585Z,78.88
2023-06-07T16:32:46.704Z,79.07
2023-06-07T16:35:14.663Z,79.08
2023-06-07T16:37:42.432Z,78.89
2023-06-07T16:40:10.197Z,78.95
2023-06-07T16:42:40.773Z,78.91
2023-06-07T16:45:10.033Z,79.35
2023-06-07T16:47:37.922Z,79.27
2023-06-07T16:50:06.271Z,79.23
2023-06-07T16:52:34.352Z,79.04
2023-06-07T16:55:02.016Z,79.09
2023-06-07T16:57:29.888Z,79.17
2023-06-07T16:59:59.528Z,79.38
2023-06-07T17:02:27.446Z,79.42
2023-06-07T17:04:55.332Z,79.29
2023-06-07T17:07:23.183Z,79.23
2023-06-07T17:09:50.956Z,79.14
2023-06-07T17:12:18.710Z,79.56
2023-06-07T17:14:49.406Z,80.04
2023-06-07T17:17:17.732Z,80.11
2023-06-07T17:19:45.698Z,80.26
2023-06-07T17:22:13.560Z,80.37
2023-06-07T17:24:41.327Z,80.58
2023-06-07T17:27:09.097Z,80.38
2023-06-07T17:29:36.944Z,80.22
2023-06-07T17:32:04.751Z,80.07
2023-06-07T17:34:32.685Z,79.88
2023-06-07T17:37:00.757Z,79.89
2023-06-07T17:39:28.524Z,80.24
2023-06-07T17:41:56.491Z,80.33
2023-06-07T17:44:26.002Z,80.49
2023-06-07T17:46:53.869Z,80.21
2023-06-07T17:49:24.395Z,80.49
2023-06-07T17:51:54.563Z,80.48
2023-06-07T17:54:23.505Z,80.43
2023-06-07T17:56:51.474Z,80.52
2023-06-07T17:59:19.443Z,80.61
2023-06-07T18:01:47.764Z,80.56
2023-06-07T18:04:16.179Z,80.71
2023-06-07T18:06:43.966Z,80.73
2023-06-07T18:09:11.865Z,80.84
2023-06-07T18:11:39.597Z,80.90
2023-06-07T18:14:07.370Z,80.84
2023-06-07T18:16:35.466Z,80.69
2023-06-07T18:19:03.403Z,80.82
2023-06-07T18:21:31.476Z,80.88
2023-06-07T18:23:59.299Z,80.92
2023-06-07T18:26:27.308Z,80.99
2023-06-07T18:28:55.083Z,80.91
2023-06-07T18:31:22.991Z,80.84
2023-06-07T18:33:50.916Z,80.95
2023-06-07T18:36:18.679Z,81.04
2023-06-07T18:38:46.748Z,80.97
2023-06-07T18:41:14.521Z,80.86
2023-06-07T18:43:42.428Z,80.90
2023-06-07T18:46:10.353Z,80.81
2023-06-07T18:48:38.380Z,80.83
2023-06-07T18:51:06.511Z,80.89
2023-06-07T18:53:34.461Z,80.88
2023-06-07T18:56:04.480Z,80.71
2023-06-07T18:58:32.246Z,80.71
2023-06-07T19:01:00.170Z,80.57
2023-06-07T19:03:28.286Z,80.53
2023-06-07T19:05:56.467Z,80.58
2023-06-07T19:08:24.434Z,80.53
2023-06-07T19:10:52.297Z,80.45
2023-06-07T19:13:20.072Z,80.26
2023-06-07T19:15:47.823Z,80.25
2023-06-07T19:18:15.857Z,80.19
2023-06-07T19:20:43.867Z,80.24
2023-06-07T19:23:11.832Z,80.26
2023-06-07T19:25:40.829Z,80.42
2023-06-07T19:28:08.596Z,80.18
2023-06-07T19:30:36.471Z,80.20
2023-06-07T19:33:14.267Z,80.20
2023-06-07T19:35:44.681Z,80.35
2023-06-07T19:38:12.547Z,80.30
2023-06-07T19:40:40.419Z,80.24
2023-06-07T19:43:08.193Z,80.20
2023-06-07T19:45:36.081Z,80.12
2023-06-07T19:48:04.105Z,79.99
2023-06-07T19:50:32.105Z,79.97
2023-06-07T19:53:00.280Z,80.08
2023-06-07T19:55:28.331Z,80.22
2023-06-07T19:57:56.317Z,79.94
2023-06-07T20:00:25.294Z,79.86
2023-06-07T20:02:53.176Z,79.86
2023-06-07T20:05:21.030Z,79.96
2023-06-07T20:07:49.302Z,79.93
2023-06-07T20:10:17.066Z,80.01
2023-06-07T20:12:44.835Z,80.00
2023-06-07T20:15:13.622Z,79.94
2023-06-07T20:17:41.533Z,80.07
2023-06-07T20:20:09.556Z,80.00
2023-06-07T20:22:37.542Z,80.11
2023-06-07T20:25:05.397Z,80.23
2023-06-07T20:27:33.158Z,79.98
2023-06-07T20:30:01.677Z,80.00
2023-06-07T20:32:29.831Z,79.92
2023-06-07T20:34:59.041Z,79.90
2023-06-07T20:37:26.898Z,79.87
2023-06-07T20:39:54.749Z,79.90
2023-06-07T20:42:22.517Z,79.92
2023-06-07T20:44:53.852Z,80.03
2023-06-07T20:47:22.343Z,79.75
2023-06-07T20:49:50.511Z,79.93
2023-06-07T20:52:18.290Z,80.08
2023-06-07T20:54:46.041Z,80.03
2023-06-07T20:57:13.907Z,79.89
2023-06-07T20:59:41.977Z,79.93
2023-06-07T21:02:09.743Z,79.71
2023-06-07T21:04:37.513Z,79.69
2023-06-07T21:07:05.369Z,79.73
2023-06-07T21:09:33.142Z,79.88
2023-06-07T21:12:01.320Z,79.81
2023-06-07T21:14:29.074Z,79.97
2023-06-07T21:16:57.556Z,80.00
2023-06-07T21:19:25.425Z,79.52
2023-06-07T21:21:53.295Z,79.50
2023-06-07T21:24:21.174Z,79.62
2023-06-07T21:26:49.126Z,79.72
2023-06-07T21:29:17.315Z,79.79
2023-06-07T21:31:45.230Z,79.91
2023-06-07T21:34:14.322Z,79.82
2023-06-07T21:36:42.330Z,79.80
2023-06-07T21:39:10.202Z,79.78
2023-06-07T21:41:37.969Z,79.66
2023-06-07T21:44:05.726Z,79.77
2023-06-07T21:46:33.685Z,79.67
2023-06-07T21:49:01.566Z,79.63
2023-06-07T21:51:29.453Z,79.28
2023-06-07T21:53:57.299Z,79.33
2023-06-07T21:56:25.074Z,79.58
2023-06-07T21:58:52.934Z,79.58
2023-06-07T22:01:20.970Z,79.52
2023-06-07T22:03:48.781Z,79.57
2023-06-07T22:06:16.738Z,79.41
2023-06-07T22:08:44.499Z,79.16
2023-06-07T22:11:12.365Z,79.18
2023-06-07T22:13:40.799Z,79.07
2023-06-07T22:16:10.165Z,79.08
2023-06-07T22:18:38.129Z,79.10
2023-06-07T22:21:06.104Z,79.23
2023-06-07T22:23:33.981Z,79.43
2023-06-07T22:26:02.333Z,79.87
2023-06-07T22:28:31.104Z,79.94
2023-06-07T22:30:59.088Z,80.14
2023-06-07T22:33:27.060Z,80.31
2023-06-07T22:35:58.663Z,80.40
2023-06-07T22:38:26.589Z,80.48
2023-06-07T22:40:54.454Z,80.43
2023-06-07T22:43:22.322Z,80.67
2023-06-07T22:45:50.191Z,80.79
2023-06-07T22:48:20.272Z,80.72
2023-06-07T22:50:48.884Z,80.94
2023-06-07T22:53:17.577Z,80.94
2023-06-07T22:55:45.442Z,80.80
2023-06-07T22:58:13.534Z,80.82
2023-06-07T23:00:41.379Z,80.86
2023-06-07T23:03:09.360Z,80.89
2023-06-07T23:05:38.310Z,80.89
2023-06-07T23:08:06.310Z,80.97
2023-06-07T23:10:36.762Z,81.22
2023-06-07T23:13:18.535Z,81.42
2023-06-07T23:15:46.539Z,81.41
2023-06-07T23:18:14.713Z,81.44
2023-06-07T23:20:42.904Z,81.51
2023-06-07T23:23:11.541Z,81.55
2023-06-07T23:25:39.501Z,81.75
2023-06-07T23:28:07.312Z,81.83
2023-06-07T23:30:35.358Z,82.07
2023-06-07T23:33:03.244Z,82.08
2023-06-07T23:35:31.077Z,81.84
2023-06-07T23:37:58.887Z,81.71
2023-06-07T23:40:26.849Z,81.73
2023-06-07T23:42:54.882Z,81.92
2023-06-07T23:45:22.844Z,81.71
2023-06-07T23:47:50.869Z,81.88
2023-06-07T23:50:18.808Z,81.81
2023-06-07T23:52:46.557Z,81.67
2023-06-07T23:55:14.415Z,81.45
2023-06-07T23:57:42.591Z,81.47
